sensor_id;sensor_type;location;lat;lon;timestamp;pressure;altitude;pressure_sealevel;temperature;humidity
45345;BME280;31078;48.304;11.896;2023-05-23T00:01:57;95918.38;;;17.01;76.55
45345;BME280;31078;48.304;11.896;2023-05-23T00:04:24;95917.22;;;17.02;76.56
45345;BME280;31078;48.304;11.896;2023-05-23T00:06:52;95918.69;;;17.22;76.39
45345;BME280;31078;48.304;11.896;2023-05-23T00:09:19;95925.47;;;17.28;76.07
45345;BME280;31078;48.304;11.896;2023-05-23T00:11:45;95927.84;;;17.30;75.71
45345;BME280;31078;48.304;11.896;2023-05-23T00:14:12;95917.88;;;17.18;75.41
45345;BME280;31078;48.304;11.896;2023-05-23T00:16:39;95914.34;;;17.21;75.10
45345;BME280;31078;48.304;11.896;2023-05-23T00:19:07;95921.88;;;17.24;75.14
45345;BME280;31078;48.304;11.896;2023-05-23T00:21:34;95920.41;;;17.04;75.38
45345;BME280;31078;48.304;11.896;2023-05-23T00:24:02;95918.59;;;16.88;76.10
45345;BME280;31078;48.304;11.896;2023-05-23T00:26:28;95923.72;;;16.67;77.08
45345;BME280;31078;48.304;11.896;2023-05-23T00:28:56;95925.44;;;16.75;76.70
45345;BME280;31078;48.304;11.896;2023-05-23T00:31:23;95924.47;;;16.87;76.57
45345;BME280;31078;48.304;11.896;2023-05-23T00:33:49;95919.38;;;16.89;75.87
45345;BME280;31078;48.304;11.896;2023-05-23T00:36:16;95917.00;;;16.87;75.57
45345;BME280;31078;48.304;11.896;2023-05-23T00:38:42;95915.69;;;16.78;75.55
45345;BME280;31078;48.304;11.896;2023-05-23T00:41:11;95922.56;;;16.68;76.05
45345;BME280;31078;48.304;11.896;2023-05-23T00:43:37;95926.34;;;16.60;76.46
45345;BME280;31078;48.304;11.896;2023-05-23T00:46:04;95923.44;;;16.72;76.51
45345;BME280;31078;48.304;11.896;2023-05-23T00:48:31;95918.94;;;16.64;76.21
45345;BME280;31078;48.304;11.896;2023-05-23T00:50:58;95919.94;;;16.75;75.94
45345;BME280;31078;48.304;11.896;2023-05-23T00:53:25;95916.06;;;16.76;75.73
45345;BME280;31078;48.304;11.896;2023-05-23T00:55:52;95920.13;;;16.63;75.82
45345;BME280;31078;48.304;11.896;2023-05-23T00:58:20;95915.88;;;16.69;75.68
45345;BME280;31078;48.304;11.896;2023-05-23T01:00:46;95918.34;;;16.74;75.62
45345;BME280;31078;48.304;11.896;2023-05-23T01:03:14;95923.16;;;16.81;75.23
45345;BME280;31078;48.304;11.896;2023-05-23T01:05:42;95927.50;;;16.59;75.82
45345;BME280;31078;48.304;11.896;2023-05-23T01:08:09;95931.41;;;16.58;76.12
45345;BME280;31078;48.304;11.896;2023-05-23T01:10:36;95934.59;;;16.60;75.75
45345;BME280;31078;48.304;11.896;2023-05-23T01:13:13;95928.00;;;16.41;77.14
45345;BME280;31078;48.304;11.896;2023-05-23T01:15:49;95933.00;;;16.59;76.34
45345;BME280;31078;48.304;11.896;2023-05-23T01:18:19;95933.38;;;16.34;77.08
45345;BME280;31078;48.304;11.896;2023-05-23T01:20:52;95930.31;;;16.39;77.54
45345;BME280;31078;48.304;11.896;2023-05-23T01:23:35;95943.91;;;16.32;77.98
45345;BME280;31078;48.304;11.896;2023-05-23T01:26:17;95944.25;;;16.50;77.60
45345;BME280;31078;48.304;11.896;2023-05-23T01:28:49;95935.75;;;16.59;76.95
45345;BME280;31078;48.304;11.896;2023-05-23T01:31:17;95944.06;;;16.62;77.03
45345;BME280;31078;48.304;11.896;2023-05-23T01:33:45;95940.34;;;16.74;76.78
45345;BME280;31078;48.304;11.896;2023-05-23T01:36:12;95943.84;;;16.71;76.90
45345;BME280;31078;48.304;11.896;2023-05-23T01:38:39;95942.00;;;16.79;76.79
45345;BME280;31078;48.304;11.896;2023-05-23T01:41:06;95940.41;;;16.78;76.36
45345;BME280;31078;48.304;11.896;2023-05-23T01:43:32;95935.81;;;16.85;76.58
45345;BME280;31078;48.304;11.896;2023-05-23T01:46:00;95942.63;;;16.91;76.16
45345;BME280;31078;48.304;11.896;2023-05-23T01:48:28;95944.50;;;16.87;75.83
45345;BME280;31078;48.304;11.896;2023-05-23T01:50:56;95944.69;;;16.75;76.23
45345;BME280;31078;48.304;11.896;2023-05-23T01:53:24;95953.09;;;16.86;75.59
45345;BME280;31078;48.304;11.896;2023-05-23T01:55:51;95953.25;;;16.93;75.63
45345;BME280;31078;48.304;11.896;2023-05-23T01:58:18;95949.06;;;17.03;75.26
45345;BME280;31078;48.304;11.896;2023-05-23T02:00:45;95964.41;;;17.04;75.14
45345;BME280;31078;48.304;11.896;2023-05-23T02:03:13;95957.31;;;17.03;75.30
45345;BME280;31078;48.304;11.896;2023-05-23T02:05:40;95961.66;;;17.04;75.20
45345;BME280;31078;48.304;11.896;2023-05-23T02:08:06;95958.50;;;16.79;76.59
45345;BME280;31078;48.304;11.896;2023-05-23T02:10:33;95967.84;;;16.74;76.63
45345;BME280;31078;48.304;11.896;2023-05-23T02:12:59;95962.41;;;16.78;76.67
45345;BME280;31078;48.304;11.896;2023-05-23T02:15:26;95964.09;;;16.63;77.82
45345;BME280;31078;48.304;11.896;2023-05-23T02:17:52;95963.38;;;16.66;77.49
45345;BME280;31078;48.304;11.896;2023-05-23T02:20:20;95965.38;;;16.69;77.23
45345;BME280;31078;48.304;11.896;2023-05-23T02:22:47;95969.28;;;16.68;77.52
45345;BME280;31078;48.304;11.896;2023-05-23T02:25:13;95971.03;;;16.76;77.17
45345;BME280;31078;48.304;11.896;2023-05-23T02:27:40;95972.03;;;16.68;77.61
45345;BME280;31078;48.304;11.896;2023-05-23T02:30:08;95973.81;;;16.57;78.17
45345;BME280;31078;48.304;11.896;2023-05-23T02:32:34;95968.44;;;16.64;78.33
45345;BME280;31078;48.304;11.896;2023-05-23T02:35:01;95966.97;;;16.70;78.01
45345;BME280;31078;48.304;11.896;2023-05-23T02:37:29;95966.97;;;16.70;78.13
45345;BME280;31078;48.304;11.896;2023-05-23T02:39:56;95960.97;;;16.64;78.04
45345;BME280;31078;48.304;11.896;2023-05-23T02:42:22;95962.94;;;16.64;78.05
45345;BME280;31078;48.304;11.896;2023-05-23T02:44:49;95974.09;;;16.71;77.69
45345;BME280;31078;48.304;11.896;2023-05-23T02:47:15;95975.41;;;16.58;78.45
45345;BME280;31078;48.304;11.896;2023-05-23T02:49:42;95969.19;;;16.61;78.68
45345;BME280;31078;48.304;11.896;2023-05-23T02:52:08;95973.06;;;16.60;78.23
45345;BME280;31078;48.304;11.896;2023-05-23T02:54:36;95969.59;;;16.63;78.35
45345;BME280;31078;48.304;11.896;2023-05-23T02:57:03;95963.53;;;16.54;78.46
45345;BME280;31078;48.304;11.896;2023-05-23T02:59:30;95973.69;;;16.50;78.80
45345;BME280;31078;48.304;11.896;2023-05-23T03:01:57;95977.56;;;16.49;78.83
45345;BME280;31078;48.304;11.896;2023-05-23T03:04:23;95972.47;;;16.28;80.08
45345;BME280;31078;48.304;11.896;2023-05-23T03:06:51;95973.44;;;16.16;80.56
45345;BME280;31078;48.304;11.896;2023-05-23T03:09:18;95970.41;;;16.02;81.42
45345;BME280;31078;48.304;11.896;2023-05-23T03:11:47;95980.56;;;15.98;81.94
45345;BME280;31078;48.304;11.896;2023-05-23T03:14:13;95982.41;;;15.74;83.88
45345;BME280;31078;48.304;11.896;2023-05-23T03:16:40;95986.97;;;15.67;83.66
45345;BME280;31078;48.304;11.896;2023-05-23T03:19:06;95984.03;;;15.59;84.55
45345;BME280;31078;48.304;11.896;2023-05-23T03:21:33;95988.13;;;15.50;85.46
45345;BME280;31078;48.304;11.896;2023-05-23T03:24:00;95992.09;;;15.52;85.54
45345;BME280;31078;48.304;11.896;2023-05-23T03:26:26;95988.28;;;15.57;84.91
45345;BME280;31078;48.304;11.896;2023-05-23T03:28:54;95981.03;;;15.64;84.82
45345;BME280;31078;48.304;11.896;2023-05-23T03:31:21;95983.22;;;15.59;84.96
45345;BME280;31078;48.304;11.896;2023-05-23T03:33:47;95984.81;;;15.60;85.10
45345;BME280;31078;48.304;11.896;2023-05-23T03:36:14;95971.00;;;15.72;84.54
45345;BME280;31078;48.304;11.896;2023-05-23T03:38:40;95976.22;;;15.77;84.09
45345;BME280;31078;48.304;11.896;2023-05-23T03:41:07;95978.59;;;15.79;84.20
45345;BME280;31078;48.304;11.896;2023-05-23T03:43:34;95980.81;;;15.73;84.16
45345;BME280;31078;48.304;11.896;2023-05-23T03:46:01;95985.97;;;15.59;84.91
45345;BME280;31078;48.304;11.896;2023-05-23T03:48:28;95988.91;;;15.50;85.63
45345;BME280;31078;48.304;11.896;2023-05-23T03:50:55;95987.81;;;15.35;86.45
45345;BME280;31078;48.304;11.896;2023-05-23T03:53:21;95977.56;;;15.32;86.96
45345;BME280;31078;48.304;11.896;2023-05-23T03:55:48;95987.38;;;15.33;86.40
45345;BME280;31078;48.304;11.896;2023-05-23T03:58:14;95987.38;;;15.33;86.99
45345;BME280;31078;48.304;11.896;2023-05-23T04:00:41;95989.78;;;15.35;86.67
45345;BME280;31078;48.304;11.896;2023-05-23T04:03:09;95992.16;;;15.36;86.74
45345;BME280;31078;48.304;11.896;2023-05-23T04:05:38;95990.09;;;15.33;86.75
45345;BME280;31078;48.304;11.896;2023-05-23T04:08:05;95995.84;;;15.44;86.59
45345;BME280;31078;48.304;11.896;2023-05-23T04:10:32;95996.16;;;15.23;87.34
45345;BME280;31078;48.304;11.896;2023-05-23T04:12:58;96000.22;;;15.13;88.25
45345;BME280;31078;48.304;11.896;2023-05-23T04:15:25;96002.91;;;15.10;88.67
45345;BME280;31078;48.304;11.896;2023-05-23T04:17:52;96001.31;;;15.09;89.49
45345;BME280;31078;48.304;11.896;2023-05-23T04:20:20;96005.72;;;14.98;90.17
45345;BME280;31078;48.304;11.896;2023-05-23T04:22:46;96009.97;;;15.11;90.00
45345;BME280;31078;48.304;11.896;2023-05-23T04:25:13;96009.09;;;15.07;89.98
45345;BME280;31078;48.304;11.896;2023-05-23T04:27:42;96013.94;;;14.98;90.63
45345;BME280;31078;48.304;11.896;2023-05-23T04:30:09;96016.44;;;14.87;91.82
45345;BME280;31078;48.304;11.896;2023-05-23T04:32:36;96023.44;;;14.84;92.86
45345;BME280;31078;48.304;11.896;2023-05-23T04:35:03;96023.94;;;15.06;91.86
45345;BME280;31078;48.304;11.896;2023-05-23T04:37:31;96026.25;;;15.04;92.26
45345;BME280;31078;48.304;11.896;2023-05-23T04:39:58;96031.91;;;15.11;91.98
45345;BME280;31078;48.304;11.896;2023-05-23T04:42:25;96024.91;;;15.13;92.99
45345;BME280;31078;48.304;11.896;2023-05-23T04:44:53;96034.47;;;15.20;92.63
45345;BME280;31078;48.304;11.896;2023-05-23T04:47:21;96038.44;;;15.22;92.63
45345;BME280;31078;48.304;11.896;2023-05-23T04:49:48;96035.31;;;15.39;91.93
45345;BME280;31078;48.304;11.896;2023-05-23T04:52:18;96046.19;;;15.52;91.58
45345;BME280;31078;48.304;11.896;2023-05-23T04:54:45;96032.75;;;15.47;91.73
45345;BME280;31078;48.304;11.896;2023-05-23T04:57:13;96031.72;;;15.35;92.30
45345;BME280;31078;48.304;11.896;2023-05-23T04:59:39;96036.47;;;15.38;92.58
45345;BME280;31078;48.304;11.896;2023-05-23T05:02:06;96036.66;;;15.46;92.39
45345;BME280;31078;48.304;11.896;2023-05-23T05:04:33;96032.47;;;15.52;91.88
45345;BME280;31078;48.304;11.896;2023-05-23T05:07:00;96035.66;;;15.54;92.50
45345;BME280;31078;48.304;11.896;2023-05-23T05:09:28;96040.53;;;15.45;92.84
45345;BME280;31078;48.304;11.896;2023-05-23T05:11:56;96038.03;;;15.55;92.68
45345;BME280;31078;48.304;11.896;2023-05-23T05:14:24;96043.19;;;15.57;92.74
45345;BME280;31078;48.304;11.896;2023-05-23T05:16:50;96038.31;;;15.66;92.74
45345;BME280;31078;48.304;11.896;2023-05-23T05:19:18;96043.38;;;15.64;93.35
45345;BME280;31078;48.304;11.896;2023-05-23T05:21:45;96040.34;;;15.69;92.53
45345;BME280;31078;48.304;11.896;2023-05-23T05:24:11;96040.88;;;15.59;93.19
45345;BME280;31078;48.304;11.896;2023-05-23T05:26:38;96036.28;;;15.63;93.00
45345;BME280;31078;48.304;11.896;2023-05-23T05:29:06;96050.66;;;15.76;92.49
45345;BME280;31078;48.304;11.896;2023-05-23T05:31:32;96042.66;;;15.86;92.25
45345;BME280;31078;48.304;11.896;2023-05-23T05:34:00;96046.00;;;15.96;92.12
45345;BME280;31078;48.304;11.896;2023-05-23T05:36:26;96040.22;;;16.01;91.85
45345;BME280;31078;48.304;11.896;2023-05-23T05:38:53;96050.66;;;16.11;91.27
45345;BME280;31078;48.304;11.896;2023-05-23T05:41:19;96067.78;;;16.04;90.84
45345;BME280;31078;48.304;11.896;2023-05-23T05:43:46;96061.13;;;16.05;91.24
45345;BME280;31078;48.304;11.896;2023-05-23T05:46:14;96051.66;;;16.22;90.29
45345;BME280;31078;48.304;11.896;2023-05-23T05:48:40;96064.97;;;16.20;90.99
45345;BME280;31078;48.304;11.896;2023-05-23T05:51:07;96069.09;;;16.30;90.11
45345;BME280;31078;48.304;11.896;2023-05-23T05:53:33;96058.16;;;16.33;90.69
45345;BME280;31078;48.304;11.896;2023-05-23T05:56:00;96057.56;;;16.43;90.05
45345;BME280;31078;48.304;11.896;2023-05-23T05:58:27;96056.19;;;16.53;89.72
45345;BME280;31078;48.304;11.896;2023-05-23T06:00:53;96058.72;;;16.62;89.63
45345;BME280;31078;48.304;11.896;2023-05-23T06:03:21;96058.16;;;16.72;88.78
45345;BME280;31078;48.304;11.896;2023-05-23T06:05:48;96060.44;;;16.70;88.96
45345;BME280;31078;48.304;11.896;2023-05-23T06:08:15;96059.75;;;16.73;89.11
45345;BME280;31078;48.304;11.896;2023-05-23T06:10:41;96074.06;;;16.82;88.29
45345;BME280;31078;48.304;11.896;2023-05-23T06:13:08;96061.59;;;16.88;89.14
45345;BME280;31078;48.304;11.896;2023-05-23T06:15:34;96062.50;;;16.96;88.30
45345;BME280;31078;48.304;11.896;2023-05-23T06:18:00;96061.84;;;17.03;87.29
45345;BME280;31078;48.304;11.896;2023-05-23T06:20:28;96071.81;;;17.11;88.40
45345;BME280;31078;48.304;11.896;2023-05-23T06:22:55;96063.56;;;17.11;86.96
45345;BME280;31078;48.304;11.896;2023-05-23T06:25:21;96074.38;;;17.00;86.82
45345;BME280;31078;48.304;11.896;2023-05-23T06:27:48;96069.66;;;17.01;86.68
45345;BME280;31078;48.304;11.896;2023-05-23T06:30:15;96069.72;;;17.04;87.17
45345;BME280;31078;48.304;11.896;2023-05-23T06:32:41;96071.00;;;17.10;87.32
45345;BME280;31078;48.304;11.896;2023-05-23T06:35:08;96073.09;;;17.17;86.59
45345;BME280;31078;48.304;11.896;2023-05-23T06:37:36;96076.13;;;17.12;89.05
45345;BME280;31078;48.304;11.896;2023-05-23T06:40:04;96075.75;;;16.90;89.93
45345;BME280;31078;48.304;11.896;2023-05-23T06:42:33;96078.66;;;16.98;89.38
45345;BME280;31078;48.304;11.896;2023-05-23T06:45:00;96080.06;;;17.11;88.73
45345;BME280;31078;48.304;11.896;2023-05-23T06:47:26;96078.59;;;17.17;87.96
45345;BME280;31078;48.304;11.896;2023-05-23T06:49:53;96087.81;;;17.05;89.19
45345;BME280;31078;48.304;11.896;2023-05-23T06:52:19;96079.94;;;17.04;88.83
45345;BME280;31078;48.304;11.896;2023-05-23T06:54:47;96072.66;;;17.15;89.63
45345;BME280;31078;48.304;11.896;2023-05-23T06:57:13;96073.53;;;17.19;89.50
45345;BME280;31078;48.304;11.896;2023-05-23T06:59:40;96075.47;;;17.41;90.56
45345;BME280;31078;48.304;11.896;2023-05-23T07:02:07;96082.84;;;17.60;88.22
45345;BME280;31078;48.304;11.896;2023-05-23T07:04:33;96078.66;;;17.70;85.60
45345;BME280;31078;48.304;11.896;2023-05-23T07:06:59;96074.88;;;17.78;87.26
45345;BME280;31078;48.304;11.896;2023-05-23T07:09:26;96080.66;;;17.96;86.66
45345;BME280;31078;48.304;11.896;2023-05-23T07:11:54;96082.19;;;17.93;82.92
45345;BME280;31078;48.304;11.896;2023-05-23T07:14:20;96090.75;;;17.88;84.46
45345;BME280;31078;48.304;11.896;2023-05-23T07:16:47;96093.75;;;17.76;83.42
45345;BME280;31078;48.304;11.896;2023-05-23T07:19:13;96103.53;;;17.51;85.38
45345;BME280;31078;48.304;11.896;2023-05-23T07:21:40;96096.00;;;17.47;86.10
45345;BME280;31078;48.304;11.896;2023-05-23T07:24:06;96097.56;;;17.71;86.08
45345;BME280;31078;48.304;11.896;2023-05-23T07:26:33;96102.63;;;17.92;85.02
45345;BME280;31078;48.304;11.896;2023-05-23T07:29:01;96091.91;;;18.14;84.67
45345;BME280;31078;48.304;11.896;2023-05-23T07:31:27;96103.78;;;18.18;84.65
45345;BME280;31078;48.304;11.896;2023-05-23T07:33:54;96092.31;;;18.16;84.78
45345;BME280;31078;48.304;11.896;2023-05-23T07:36:20;96095.66;;;18.29;83.96
45345;BME280;31078;48.304;11.896;2023-05-23T07:38:47;96093.69;;;18.29;84.21
45345;BME280;31078;48.304;11.896;2023-05-23T07:41:14;96087.72;;;18.23;84.97
45345;BME280;31078;48.304;11.896;2023-05-23T07:43:40;96081.22;;;18.42;84.88
45345;BME280;31078;48.304;11.896;2023-05-23T07:46:08;96093.63;;;18.56;82.11
45345;BME280;31078;48.304;11.896;2023-05-23T07:48:35;96092.72;;;18.78;84.02
45345;BME280;31078;48.304;11.896;2023-05-23T07:51:01;96089.28;;;18.88;84.41
45345;BME280;31078;48.304;11.896;2023-05-23T07:53:28;96085.16;;;19.09;83.95
45345;BME280;31078;48.304;11.896;2023-05-23T07:55:54;96089.47;;;19.10;78.89
45345;BME280;31078;48.304;11.896;2023-05-23T07:58:22;96095.41;;;19.08;78.94
45345;BME280;31078;48.304;11.896;2023-05-23T08:00:49;96102.50;;;19.09;79.86
45345;BME280;31078;48.304;11.896;2023-05-23T08:03:17;96095.34;;;19.04;81.73
45345;BME280;31078;48.304;11.896;2023-05-23T08:05:44;96098.44;;;18.99;78.07
45345;BME280;31078;48.304;11.896;2023-05-23T08:08:10;96095.00;;;19.06;76.83
45345;BME280;31078;48.304;11.896;2023-05-23T08:10:37;96100.66;;;19.24;79.24
45345;BME280;31078;48.304;11.896;2023-05-23T08:13:04;96093.44;;;19.56;80.28
45345;BME280;31078;48.304;11.896;2023-05-23T08:15:31;96102.31;;;19.76;76.05
45345;BME280;31078;48.304;11.896;2023-05-23T08:17:57;96104.72;;;19.81;73.51
45345;BME280;31078;48.304;11.896;2023-05-23T08:20:25;96107.19;;;19.97;73.68
45345;BME280;31078;48.304;11.896;2023-05-23T08:22:56;96102.59;;;20.16;73.14
45345;BME280;31078;48.304;11.896;2023-05-23T08:25:23;96103.38;;;20.20;74.38
45345;BME280;31078;48.304;11.896;2023-05-23T08:27:49;96105.50;;;19.34;74.97
45345;BME280;31078;48.304;11.896;2023-05-23T08:30:16;96107.59;;;19.48;76.85
45345;BME280;31078;48.304;11.896;2023-05-23T08:32:42;96106.22;;;19.72;74.58
45345;BME280;31078;48.304;11.896;2023-05-23T08:35:09;96113.91;;;19.96;77.71
45345;BME280;31078;48.304;11.896;2023-05-23T08:37:37;96119.91;;;20.05;73.76
45345;BME280;31078;48.304;11.896;2023-05-23T08:40:06;96123.22;;;19.74;73.31
45345;BME280;31078;48.304;11.896;2023-05-23T08:42:36;96119.16;;;19.16;74.96
45345;BME280;31078;48.304;11.896;2023-05-23T08:45:03;96117.56;;;19.19;76.06
45345;BME280;31078;48.304;11.896;2023-05-23T08:47:31;96119.84;;;19.10;75.62
45345;BME280;31078;48.304;11.896;2023-05-23T08:50:00;96130.13;;;19.13;76.99
45345;BME280;31078;48.304;11.896;2023-05-23T08:52:28;96128.22;;;19.17;76.92
45345;BME280;31078;48.304;11.896;2023-05-23T08:55:00;96134.44;;;19.47;77.73
45345;BME280;31078;48.304;11.896;2023-05-23T08:57:27;96135.19;;;19.44;73.08
45345;BME280;31078;48.304;11.896;2023-05-23T08:59:55;96132.47;;;19.48;76.52
45345;BME280;31078;48.304;11.896;2023-05-23T09:02:21;96140.75;;;19.51;75.79
45345;BME280;31078;48.304;11.896;2023-05-23T09:04:48;96135.97;;;19.45;75.63
45345;BME280;31078;48.304;11.896;2023-05-23T09:07:14;96139.59;;;19.52;75.96
45345;BME280;31078;48.304;11.896;2023-05-23T09:09:41;96138.06;;;19.59;77.87
45345;BME280;31078;48.304;11.896;2023-05-23T09:12:09;96133.88;;;19.75;75.54
45345;BME280;31078;48.304;11.896;2023-05-23T09:14:37;96133.28;;;20.03;74.50
45345;BME280;31078;48.304;11.896;2023-05-23T09:17:05;96137.19;;;19.95;71.38
45345;BME280;31078;48.304;11.896;2023-05-23T09:19:32;96138.28;;;19.80;73.53
45345;BME280;31078;48.304;11.896;2023-05-23T09:22:01;96133.09;;;19.75;71.94
45345;BME280;31078;48.304;11.896;2023-05-23T09:24:33;96141.03;;;19.80;73.58
45345;BME280;31078;48.304;11.896;2023-05-23T09:26:59;96132.91;;;19.53;72.25
45345;BME280;31078;48.304;11.896;2023-05-23T09:29:29;96140.75;;;19.51;74.42
45345;BME280;31078;48.304;11.896;2023-05-23T09:31:58;96138.28;;;19.39;74.64
45345;BME280;31078;48.304;11.896;2023-05-23T09:34:26;96140.25;;;19.39;74.86
45345;BME280;31078;48.304;11.896;2023-05-23T09:36:54;96136.34;;;19.02;76.66
45345;BME280;31078;48.304;11.896;2023-05-23T09:39:21;96143.25;;;19.23;73.01
45345;BME280;31078;48.304;11.896;2023-05-23T09:41:47;96152.91;;;19.02;75.79
45345;BME280;31078;48.304;11.896;2023-05-23T09:44:21;96144.22;;;19.00;75.85
45345;BME280;31078;48.304;11.896;2023-05-23T09:46:50;96141.63;;;19.18;75.27
45345;BME280;31078;48.304;11.896;2023-05-23T09:49:18;96148.44;;;19.28;75.30
45345;BME280;31078;48.304;11.896;2023-05-23T09:51:56;96146.56;;;19.39;73.94
45345;BME280;31078;48.304;11.896;2023-05-23T09:54:23;96143.75;;;19.32;75.19
45345;BME280;31078;48.304;11.896;2023-05-23T09:56:51;96146.75;;;19.16;76.41
45345;BME280;31078;48.304;11.896;2023-05-23T09:59:21;96153.63;;;19.37;75.39
45345;BME280;31078;48.304;11.896;2023-05-23T10:01:52;96145.25;;;19.26;74.79
45345;BME280;31078;48.304;11.896;2023-05-23T10:04:21;96143.34;;;19.34;76.72
45345;BME280;31078;48.304;11.896;2023-05-23T10:06:53;96143.59;;;19.59;75.67
45345;BME280;31078;48.304;11.896;2023-05-23T10:09:24;96139.94;;;19.47;75.58
45345;BME280;31078;48.304;11.896;2023-05-23T10:15:12;96142.72;;;19.47;73.86
45345;BME280;31078;48.304;11.896;2023-05-23T10:20:38;96138.75;;;19.89;73.00
45345;BME280;31078;48.304;11.896;2023-05-23T10:23:05;96137.28;;;20.06;73.55
45345;BME280;31078;48.304;11.896;2023-05-23T10:25:32;96137.50;;;20.42;70.06
45345;BME280;31078;48.304;11.896;2023-05-23T10:28:01;96137.81;;;20.26;69.39
45345;BME280;31078;48.304;11.896;2023-05-23T10:30:28;96134.16;;;20.15;69.60
45345;BME280;31078;48.304;11.896;2023-05-23T10:32:56;96131.47;;;19.70;71.85
45345;BME280;31078;48.304;11.896;2023-05-23T10:35:39;96133.81;;;19.65;71.02
45345;BME280;31078;48.304;11.896;2023-05-23T10:38:12;96126.97;;;19.99;70.76
45345;BME280;31078;48.304;11.896;2023-05-23T10:40:49;96126.22;;;20.06;71.27
45345;BME280;31078;48.304;11.896;2023-05-23T10:43:24;96126.75;;;20.26;67.71
45345;BME280;31078;48.304;11.896;2023-05-23T10:45:52;96128.56;;;20.04;69.79
45345;BME280;31078;48.304;11.896;2023-05-23T10:48:21;96133.34;;;20.11;68.34
45345;BME280;31078;48.304;11.896;2023-05-23T10:51:04;96125.50;;;20.16;67.70
45345;BME280;31078;48.304;11.896;2023-05-23T10:53:31;96121.56;;;20.21;70.63
45345;BME280;31078;48.304;11.896;2023-05-23T10:56:00;96120.97;;;20.52;72.29
45345;BME280;31078;48.304;11.896;2023-05-23T10:58:29;96120.22;;;20.66;66.20
45345;BME280;31078;48.304;11.896;2023-05-23T11:00:59;96124.25;;;20.79;64.54
45345;BME280;31078;48.304;11.896;2023-05-23T11:03:35;96122.72;;;20.96;63.22
45345;BME280;31078;48.304;11.896;2023-05-23T11:06:03;96109.69;;;21.07;65.36
45345;BME280;31078;48.304;11.896;2023-05-23T11:08:36;96109.31;;;21.13;69.53
45345;BME280;31078;48.304;11.896;2023-05-23T11:11:04;96116.38;;;20.89;65.88
45345;BME280;31078;48.304;11.896;2023-05-23T11:13:53;96100.56;;;21.03;64.63
45345;BME280;31078;48.304;11.896;2023-05-23T11:16:25;96107.34;;;21.17;68.00
45345;BME280;31078;48.304;11.896;2023-05-23T11:21:38;96088.00;;;21.31;64.41
45345;BME280;31078;48.304;11.896;2023-05-23T11:24:05;96095.94;;;21.43;64.37
45345;BME280;31078;48.304;11.896;2023-05-23T11:26:34;96091.59;;;21.56;64.20
45345;BME280;31078;48.304;11.896;2023-05-23T11:29:01;96092.72;;;21.16;62.44
45345;BME280;31078;48.304;11.896;2023-05-23T11:31:28;96094.56;;;20.76;63.96
45345;BME280;31078;48.304;11.896;2023-05-23T11:33:56;96094.97;;;20.75;64.92
45345;BME280;31078;48.304;11.896;2023-05-23T11:36:23;96103.47;;;20.34;64.08
45345;BME280;31078;48.304;11.896;2023-05-23T11:38:52;96111.28;;;20.18;65.45
45345;BME280;31078;48.304;11.896;2023-05-23T11:41:18;96110.81;;;20.05;64.88
45345;BME280;31078;48.304;11.896;2023-05-23T11:43:49;96102.53;;;20.08;68.97
45345;BME280;31078;48.304;11.896;2023-05-23T11:46:16;96104.25;;;20.31;67.16
45345;BME280;31078;48.304;11.896;2023-05-23T11:48:44;96105.03;;;20.35;66.96
45345;BME280;31078;48.304;11.896;2023-05-23T11:51:13;96111.38;;;20.32;64.85
45345;BME280;31078;48.304;11.896;2023-05-23T11:53:40;96104.25;;;20.31;63.98
45345;BME280;31078;48.304;11.896;2023-05-23T11:56:06;96091.66;;;20.44;63.49
45345;BME280;31078;48.304;11.896;2023-05-23T11:58:34;96091.03;;;20.79;62.97
45345;BME280;31078;48.304;11.896;2023-05-23T12:01:02;96093.06;;;21.07;64.41
45345;BME280;31078;48.304;11.896;2023-05-23T12:03:29;96089.94;;;21.16;62.34
45345;BME280;31078;48.304;11.896;2023-05-23T12:05:56;96101.41;;;21.22;63.60
45345;BME280;31078;48.304;11.896;2023-05-23T12:08:24;96100.28;;;21.37;60.77
45345;BME280;31078;48.304;11.896;2023-05-23T12:10:51;96100.66;;;21.60;63.43
45345;BME280;31078;48.304;11.896;2023-05-23T12:13:19;96097.09;;;21.85;62.43
45345;BME280;31078;48.304;11.896;2023-05-23T12:15:45;96099.06;;;22.02;61.02
45345;BME280;31078;48.304;11.896;2023-05-23T12:18:12;96094.31;;;21.99;59.42
45345;BME280;31078;48.304;11.896;2023-05-23T12:20:39;96094.72;;;21.80;58.01
45345;BME280;31078;48.304;11.896;2023-05-23T12:23:06;96102.25;;;21.40;58.45
45345;BME280;31078;48.304;11.896;2023-05-23T12:25:39;96100.66;;;21.50;59.57
45345;BME280;31078;48.304;11.896;2023-05-23T12:28:05;96102.25;;;21.36;60.09
45345;BME280;31078;48.304;11.896;2023-05-23T12:30:40;96105.34;;;21.06;59.69
45345;BME280;31078;48.304;11.896;2023-05-23T12:33:07;96104.50;;;20.88;61.25
45345;BME280;31078;48.304;11.896;2023-05-23T12:35:33;96110.84;;;20.92;62.38
45345;BME280;31078;48.304;11.896;2023-05-23T12:38:00;96106.44;;;20.80;60.82
45345;BME280;31078;48.304;11.896;2023-05-23T12:40:27;96102.09;;;20.76;61.79
45345;BME280;31078;48.304;11.896;2023-05-23T12:42:55;96108.72;;;20.53;60.42
45345;BME280;31078;48.304;11.896;2023-05-23T12:45:23;96100.66;;;20.30;62.39
45345;BME280;31078;48.304;11.896;2023-05-23T12:47:50;96097.28;;;20.58;62.66
45345;BME280;31078;48.304;11.896;2023-05-23T12:50:16;96105.28;;;20.85;61.66
45345;BME280;31078;48.304;11.896;2023-05-23T12:52:43;96102.56;;;21.14;60.81
45345;BME280;31078;48.304;11.896;2023-05-23T12:55:10;96104.59;;;21.20;63.04
45345;BME280;31078;48.304;11.896;2023-05-23T12:57:38;96106.94;;;21.15;60.88
45345;BME280;31078;48.304;11.896;2023-05-23T13:00:07;96110.09;;;21.09;60.29
45345;BME280;31078;48.304;11.896;2023-05-23T13:02:34;96102.25;;;21.33;61.27